createdAt,value
2023-01-30T00:01:19.707Z,66.68
2023-01-30T00:03:47.178Z,66.76
2023-01-30T00:06:14.793Z,66.71
2023-01-30T00:08:41.304Z,66.72
2023-01-30T00:11:11.484Z,66.28
2023-01-30T00:13:38.982Z,66.23
2023-01-30T00:16:06.269Z,66.24
2023-01-30T00:18:32.858Z,66.57
2023-01-30T00:21:03.368Z,66.06
2023-01-30T00:23:32.184Z,66.19
2023-01-30T00:25:59.655Z,66.31
2023-01-30T00:28:26.411Z,66.47
2023-01-30T00:30:55.115Z,67.11
2023-01-30T00:33:24.740Z,66.90
2023-01-30T00:35:53.475Z,66.90
2023-01-30T00:38:21.241Z,66.97
2023-01-30T00:40:48.709Z,67.12
2023-01-30T00:43:39.356Z,66.99
2023-01-30T00:46:45.004Z,66.56
2023-01-30T00:49:11.598Z,66.96
2023-01-30T00:51:38.103Z,67.35
2023-01-30T00:54:04.595Z,66.98
2023-01-30T00:56:31.131Z,67.35
2023-01-30T00:58:57.605Z,66.85
2023-01-30T01:01:24.317Z,66.49
2023-01-30T01:03:50.906Z,66.17
2023-01-30T01:06:17.474Z,66.51
2023-01-30T01:08:43.948Z,66.71
2023-01-30T01:11:10.520Z,66.90
2023-01-30T01:13:37.002Z,66.92
2023-01-30T01:16:03.664Z,66.32
2023-01-30T01:18:30.130Z,66.18
2023-01-30T01:20:56.604Z,66.44
2023-01-30T01:23:23.128Z,66.71
2023-01-30T01:25:49.661Z,66.78
2023-01-30T01:28:18.360Z,67.00
2023-01-30T01:30:44.832Z,67.54
2023-01-30T01:33:11.263Z,67.05
2023-01-30T01:35:41.328Z,67.10
2023-01-30T01:38:07.831Z,67.18
2023-01-30T01:40:52.850Z,67.24
2023-01-30T01:43:23.432Z,67.28
2023-01-30T01:45:57.436Z,67.04
2023-01-30T01:48:33.444Z,66.83
2023-01-30T01:51:12.964Z,66.84
2023-01-30T01:53:50.212Z,66.66
2023-01-30T01:56:19.372Z,66.38
2023-01-30T01:58:53.490Z,66.48
2023-01-30T02:01:20.140Z,66.86
2023-01-30T02:03:54.353Z,67.05
2023-01-30T02:06:22.782Z,67.38
2023-01-30T02:09:00.324Z,67.08
2023-01-30T02:11:35.885Z,66.61
2023-01-30T02:14:03.059Z,66.71
2023-01-30T02:16:29.671Z,67.46
2023-01-30T02:18:56.370Z,67.83
2023-01-30T02:22:19.900Z,67.83
2023-01-30T02:25:19.358Z,67.73
2023-01-30T02:28:10.679Z,68.90
2023-01-30T02:30:55.672Z,68.48
2023-01-30T02:33:53.139Z,68.76
2023-01-30T02:36:33.793Z,68.68
2023-01-30T02:40:05.689Z,69.12
2023-01-30T02:42:59.323Z,69.79
2023-01-30T02:45:41.145Z,69.62
2023-01-30T02:48:17.059Z,69.39
2023-01-30T02:50:54.940Z,69.65
2023-01-30T02:53:21.810Z,70.16
2023-01-30T02:55:48.284Z,69.46
2023-01-30T02:58:21.544Z,69.43
2023-01-30T03:01:36.043Z,69.51
2023-01-30T03:04:44.127Z,69.90
2023-01-30T03:07:40.451Z,69.70
2023-01-30T03:10:34.238Z,69.71
2023-01-30T03:13:16.255Z,69.00
2023-01-30T03:15:53.905Z,69.92
2023-01-30T03:18:21.531Z,70.11
2023-01-30T03:20:48.155Z,69.17
2023-01-30T03:23:14.732Z,69.02
2023-01-30T03:25:44.213Z,69.05
2023-01-30T03:28:14.101Z,68.90
2023-01-30T03:30:40.824Z,69.08
2023-01-30T03:33:07.405Z,68.92
2023-01-30T03:35:34.255Z,69.04
2023-01-30T03:38:00.749Z,68.63
2023-01-30T03:40:27.380Z,68.04
2023-01-30T03:42:53.865Z,68.80
2023-01-30T03:45:20.575Z,68.66
2023-01-30T03:47:47.163Z,69.04
2023-01-30T03:50:14.011Z,69.54
2023-01-30T03:52:40.517Z,69.21
2023-01-30T03:55:07.701Z,69.22
2023-01-30T03:57:34.131Z,68.99
2023-01-30T04:00:00.678Z,69.19
2023-01-30T04:02:27.213Z,69.48
2023-01-30T04:04:53.703Z,69.90
2023-01-30T04:07:20.146Z,69.17
2023-01-30T04:09:46.698Z,69.08
2023-01-30T04:12:13.799Z,69.07
2023-01-30T04:14:40.513Z,69.35
2023-01-30T04:17:07.007Z,69.02
2023-01-30T04:19:33.590Z,69.49
2023-01-30T04:22:00.137Z,68.81
2023-01-30T04:24:26.612Z,68.56
2023-01-30T04:26:53.096Z,68.93
2023-01-30T04:29:19.648Z,69.21
2023-01-30T04:31:46.086Z,69.33
2023-01-30T04:34:12.687Z,69.36
2023-01-30T04:36:39.170Z,69.60
2023-01-30T04:39:05.722Z,69.53
2023-01-30T04:41:32.220Z,69.35
2023-01-30T04:43:58.652Z,69.47
2023-01-30T04:46:25.210Z,69.45
2023-01-30T04:48:51.629Z,69.04
2023-01-30T04:51:18.116Z,69.53
2023-01-30T04:53:44.657Z,69.28
2023-01-30T04:56:11.138Z,70.15
2023-01-30T04:58:37.601Z,69.68
2023-01-30T05:01:25.311Z,69.44
2023-01-30T05:03:55.643Z,70.19
2023-01-30T05:06:23.567Z,70.47
2023-01-30T05:08:52.211Z,70.04
2023-01-30T05:11:19.982Z,70.29
2023-01-30T05:13:46.741Z,70.07
2023-01-30T05:16:15.729Z,70.85
2023-01-30T05:18:43.002Z,70.39
2023-01-30T05:21:19.749Z,70.63
2023-01-30T05:23:46.910Z,71.43
2023-01-30T05:26:15.094Z,71.28
2023-01-30T05:28:42.593Z,71.74
2023-01-30T05:31:13.961Z,71.10
2023-01-30T05:33:41.616Z,71.44
2023-01-30T05:36:15.133Z,71.31
2023-01-30T05:38:44.552Z,71.31
2023-01-30T05:41:13.803Z,71.67
2023-01-30T05:43:40.493Z,71.20
2023-01-30T05:46:09.718Z,71.77
2023-01-30T05:48:36.239Z,71.99
2023-01-30T05:51:03.590Z,71.28
2023-01-30T05:53:35.987Z,71.46
2023-01-30T05:56:05.658Z,72.02
2023-01-30T05:58:33.450Z,71.25
2023-01-30T06:01:02.623Z,70.71
2023-01-30T06:03:29.760Z,70.86
2023-01-30T06:05:56.344Z,70.71
2023-01-30T06:08:23.423Z,70.65
2023-01-30T06:10:50.259Z,70.40
2023-01-30T06:13:16.719Z,70.45
2023-01-30T06:15:43.295Z,70.75
2023-01-30T06:18:09.838Z,71.10
2023-01-30T06:20:37.044Z,70.96
2023-01-30T06:23:03.544Z,70.38
2023-01-30T06:25:30.002Z,71.07
2023-01-30T06:27:56.502Z,70.04
2023-01-30T06:30:23.104Z,70.53
2023-01-30T06:32:52.459Z,69.87
2023-01-30T06:35:19.620Z,70.82
2023-01-30T06:37:46.507Z,70.32
2023-01-30T06:40:13.431Z,70.62
2023-01-30T06:42:45.854Z,71.06
2023-01-30T06:45:14.502Z,71.61
2023-01-30T06:47:54.345Z,72.95
2023-01-30T06:50:25.294Z,71.76
2023-01-30T06:52:53.877Z,71.79
2023-01-30T06:55:26.613Z,71.53
2023-01-30T06:58:11.979Z,72.51
2023-01-30T07:00:40.725Z,72.54
2023-01-30T07:03:12.768Z,72.27
2023-01-30T07:05:40.727Z,72.87
2023-01-30T07:08:07.401Z,71.94
2023-01-30T07:10:35.785Z,71.82
2023-01-30T07:13:03.760Z,71.60
2023-01-30T07:15:31.343Z,72.04
2023-01-30T07:17:58.140Z,72.73
2023-01-30T07:20:24.889Z,73.24
2023-01-30T07:22:56.619Z,73.83
2023-01-30T07:25:26.353Z,73.73
2023-01-30T07:27:58.832Z,73.31
2023-01-30T07:30:27.913Z,73.27
2023-01-30T07:33:00.427Z,74.19
2023-01-30T07:35:31.170Z,72.91
2023-01-30T07:37:58.302Z,72.84
2023-01-30T07:40:25.909Z,74.27
2023-01-30T07:43:04.864Z,72.98
2023-01-30T07:45:42.247Z,72.93
2023-01-30T07:48:11.376Z,73.12
2023-01-30T07:50:38.494Z,74.01
2023-01-30T07:53:07.906Z,73.28
2023-01-30T07:55:35.250Z,73.71
2023-01-30T07:58:02.403Z,73.75
2023-01-30T08:00:29.203Z,73.90
2023-01-30T08:02:55.793Z,74.44
2023-01-30T08:05:22.469Z,73.31
2023-01-30T08:07:48.965Z,73.82
2023-01-30T08:10:16.817Z,72.88
2023-01-30T08:12:43.603Z,73.65
2023-01-30T08:15:11.104Z,73.42
2023-01-30T08:17:38.073Z,74.33
2023-01-30T08:20:05.162Z,74.35
2023-01-30T08:22:31.679Z,74.79
2023-01-30T08:24:58.209Z,74.46
2023-01-30T08:27:24.732Z,73.79
2023-01-30T08:29:51.376Z,73.59
2023-01-30T08:32:17.871Z,73.92
2023-01-30T08:34:44.363Z,73.38
2023-01-30T08:37:10.805Z,73.76
2023-01-30T08:39:37.426Z,74.95
2023-01-30T08:42:04.135Z,75.15
2023-01-30T08:44:30.589Z,75.16
2023-01-30T08:46:57.046Z,75.05
2023-01-30T08:49:23.525Z,74.09
2023-01-30T08:51:50.074Z,74.03
2023-01-30T08:54:16.562Z,73.23
2023-01-30T08:56:43.131Z,73.62
2023-01-30T08:59:09.626Z,73.92
2023-01-30T09:01:38.046Z,73.60
2023-01-30T09:04:04.752Z,73.34
2023-01-30T09:06:32.047Z,72.34
2023-01-30T09:09:00.151Z,72.96
2023-01-30T09:11:27.050Z,72.89
2023-01-30T09:13:53.758Z,73.28
2023-01-30T09:16:20.324Z,73.01
2023-01-30T09:18:46.864Z,72.73
2023-01-30T09:21:14.084Z,72.12
2023-01-30T09:23:41.291Z,71.63
2023-01-30T09:26:08.461Z,71.60
2023-01-30T09:28:35.519Z,71.31
2023-01-30T09:31:02.614Z,71.76
2023-01-30T09:33:29.450Z,71.02
2023-01-30T09:35:56.369Z,70.95
2023-01-30T09:38:22.904Z,70.70
2023-01-30T09:41:13.641Z,70.54
2023-01-30T09:44:01.395Z,70.52
2023-01-30T09:47:09.706Z,70.46
2023-01-30T09:50:02.858Z,69.92
2023-01-30T09:53:00.108Z,70.19
2023-01-30T09:55:37.010Z,69.81
2023-01-30T09:58:03.542Z,69.62
2023-01-30T10:00:42.206Z,69.52
2023-01-30T10:03:08.699Z,70.27
2023-01-30T10:05:54.294Z,69.33
2023-01-30T10:08:32.723Z,70.03
2023-01-30T10:11:30.310Z,69.41
2023-01-30T10:14:13.123Z,70.59
2023-01-30T10:17:02.445Z,69.69
2023-01-30T10:20:03.372Z,69.97
2023-01-30T10:22:45.847Z,69.82
2023-01-30T10:25:37.549Z,69.55
2023-01-30T10:28:16.245Z,69.69
2023-01-30T10:30:47.833Z,68.53
2023-01-30T10:33:28.811Z,68.13
2023-01-30T10:36:25.035Z,67.78
2023-01-30T10:38:55.166Z,67.35
2023-01-30T10:42:19.589Z,67.02
2023-01-30T10:44:47.762Z,67.49
2023-01-30T10:47:47.441Z,67.34
2023-01-30T10:50:45.215Z,67.93
2023-01-30T10:53:21.304Z,68.36
2023-01-30T10:55:52.885Z,68.11
2023-01-30T10:58:36.448Z,67.14
2023-01-30T11:01:24.223Z,66.82
2023-01-30T11:03:59.725Z,66.70
2023-01-30T11:06:26.614Z,66.32
2023-01-30T11:08:56.037Z,65.57
2023-01-30T11:11:47.368Z,65.38
2023-01-30T11:14:13.910Z,66.23
2023-01-30T11:16:47.478Z,65.35
2023-01-30T11:19:20.824Z,65.34
2023-01-30T11:21:56.312Z,65.29
2023-01-30T11:24:31.456Z,64.42
2023-01-30T11:27:35.051Z,63.60
2023-01-30T11:30:14.473Z,64.54
2023-01-30T11:32:44.467Z,64.04
2023-01-30T11:35:13.884Z,65.65
2023-01-30T11:37:43.889Z,65.81
2023-01-30T11:40:28.366Z,66.71
2023-01-30T11:43:10.649Z,67.30
2023-01-30T11:45:41.896Z,66.90
2023-01-30T11:48:33.015Z,66.85
2023-01-30T11:51:05.949Z,67.13
2023-01-30T11:53:46.368Z,66.63
2023-01-30T11:56:40.473Z,66.62
2023-01-30T11:59:47.507Z,67.56
2023-01-30T12:02:24.279Z,65.78
2023-01-30T12:04:59.399Z,65.33
2023-01-30T12:07:29.653Z,65.21
2023-01-30T12:09:58.450Z,65.35
2023-01-30T12:12:49.077Z,65.18
2023-01-30T12:15:31.829Z,65.45
2023-01-30T12:18:36.296Z,65.75
2023-01-30T12:21:21.568Z,64.59
2023-01-30T12:24:09.875Z,64.91
2023-01-30T12:26:47.091Z,65.15
2023-01-30T12:29:29.769Z,64.42
2023-01-30T12:32:12.259Z,64.53
2023-01-30T12:34:38.955Z,64.98
2023-01-30T12:37:40.250Z,64.71
2023-01-30T12:40:40.559Z,64.26
2023-01-30T12:43:25.679Z,64.07
2023-01-30T12:46:08.359Z,64.38
2023-01-30T12:49:25.835Z,65.45
2023-01-30T12:52:41.013Z,64.80
2023-01-30T12:55:34.673Z,65.27
2023-01-30T12:58:24.192Z,64.44
2023-01-30T13:01:29.540Z,66.82
2023-01-30T13:04:34.367Z,66.13
2023-01-30T13:07:28.496Z,67.16
2023-01-30T13:10:23.268Z,65.88
2023-01-30T13:13:45.987Z,65.74
2023-01-30T13:16:32.647Z,65.71
2023-01-30T13:19:40.968Z,66.12
2023-01-30T13:22:35.219Z,66.26
2023-01-30T13:25:53.696Z,65.39
2023-01-30T13:28:27.508Z,65.25
2023-01-30T13:30:56.540Z,64.33
2023-01-30T13:33:35.350Z,64.67
2023-01-30T13:36:26.006Z,64.59
2023-01-30T13:39:04.838Z,64.57
2023-01-30T13:41:44.209Z,63.64
2023-01-30T13:44:23.118Z,63.49
2023-01-30T13:46:54.347Z,64.42
2023-01-30T13:49:37.908Z,64.74
2023-01-30T13:52:46.612Z,64.43
2023-01-30T13:55:54.053Z,64.78
2023-01-30T13:58:53.344Z,63.43
2023-01-30T14:01:21.013Z,63.38
2023-01-30T14:03:47.479Z,63.73
2023-01-30T14:06:37.258Z,63.40
2023-01-30T14:09:20.158Z,64.13
2023-01-30T14:11:59.678Z,64.35
2023-01-30T14:14:34.097Z,64.01
2023-01-30T14:17:27.305Z,63.39
2023-01-30T14:20:01.613Z,62.88
2023-01-30T14:22:42.275Z,63.12
2023-01-30T14:25:30.285Z,63.12
2023-01-30T14:27:59.739Z,62.18
2023-01-30T14:30:55.246Z,62.31
2023-01-30T14:33:21.743Z,61.91
2023-01-30T14:35:58.144Z,62.44
2023-01-30T14:38:39.179Z,62.42
2023-01-30T14:41:05.741Z,61.42
2023-01-30T14:43:41.534Z,61.99
2023-01-30T14:46:18.894Z,61.99
2023-01-30T14:48:54.119Z,62.17
2023-01-30T14:51:40.251Z,62.21
2023-01-30T14:54:12.924Z,62.45
2023-01-30T14:56:58.662Z,61.77
2023-01-30T14:59:52.032Z,61.94
2023-01-30T15:02:30.369Z,62.38
2023-01-30T15:05:13.868Z,62.32
2023-01-30T15:07:53.569Z,61.38
2023-01-30T15:11:19.089Z,60.98
2023-01-30T15:14:17.746Z,61.63
2023-01-30T15:17:21.725Z,62.25
2023-01-30T15:20:48.061Z,62.15
2023-01-30T15:23:29.461Z,62.05
2023-01-30T15:26:18.552Z,62.27
2023-01-30T15:29:02.512Z,62.83
2023-01-30T15:31:29.117Z,62.35
2023-01-30T15:33:58.882Z,62.72
2023-01-30T15:36:34.006Z,61.99
2023-01-30T15:39:06.341Z,61.92
2023-01-30T15:41:41.259Z,61.44
2023-01-30T15:44:50.912Z,61.97
2023-01-30T15:47:39.937Z,62.10
2023-01-30T15:50:10.207Z,62.52
2023-01-30T15:52:50.214Z,61.53
2023-01-30T15:55:32.100Z,62.58
2023-01-30T15:58:06.217Z,61.98
2023-01-30T16:00:44.091Z,62.20
2023-01-30T16:03:17.098Z,62.44
2023-01-30T16:05:49.729Z,61.91
2023-01-30T16:08:23.638Z,61.24
2023-01-30T16:10:51.694Z,61.58
2023-01-30T16:13:21.149Z,62.32
2023-01-30T16:16:13.694Z,62.34
2023-01-30T16:18:56.484Z,62.54
2023-01-30T16:21:37.369Z,62.03
2023-01-30T16:24:18.001Z,62.30
2023-01-30T16:26:52.790Z,63.31
2023-01-30T16:29:26.626Z,63.13
2023-01-30T16:31:55.350Z,62.47
2023-01-30T16:34:38.179Z,62.89
2023-01-30T16:37:27.613Z,63.85
2023-01-30T16:40:23.130Z,63.72
2023-01-30T16:43:01.939Z,63.79
2023-01-30T16:45:34.392Z,63.90
2023-01-30T16:48:32.980Z,63.58
2023-01-30T16:50:59.591Z,63.12
2023-01-30T16:53:30.748Z,62.33
2023-01-30T16:56:02.290Z,62.07
2023-01-30T16:58:34.079Z,62.37
2023-01-30T17:01:08.206Z,62.29
2023-01-30T17:03:40.315Z,62.66
2023-01-30T17:06:19.651Z,62.64
2023-01-30T17:08:52.031Z,61.96
2023-01-30T17:11:41.448Z,62.30
2023-01-30T17:14:25.687Z,62.39
2023-01-30T17:17:08.616Z,62.46
2023-01-30T17:19:36.331Z,62.56
2023-01-30T17:22:07.909Z,62.88
2023-01-30T17:24:35.962Z,62.76
2023-01-30T17:27:04.412Z,62.84
2023-01-30T17:29:48.892Z,63.00
2023-01-30T17:32:16.035Z,62.26
2023-01-30T17:34:42.704Z,62.51
2023-01-30T17:37:23.041Z,63.04
2023-01-30T17:39:49.669Z,62.79
2023-01-30T17:42:21.928Z,63.21
2023-01-30T17:44:48.869Z,62.87
2023-01-30T17:47:16.812Z,62.77
2023-01-30T17:49:43.640Z,62.97
2023-01-30T17:52:14.040Z,62.22
2023-01-30T17:54:40.783Z,62.64
2023-01-30T17:57:11.643Z,62.26
2023-01-30T17:59:38.099Z,63.11
2023-01-30T18:02:05.032Z,63.15
2023-01-30T18:04:31.515Z,64.01
2023-01-30T18:07:06.257Z,63.85
2023-01-30T18:09:32.789Z,63.98
2023-01-30T18:11:59.533Z,64.82
2023-01-30T18:14:26.005Z,64.72
2023-01-30T18:16:52.970Z,64.57
2023-01-30T18:19:23.784Z,63.83
2023-01-30T18:21:50.383Z,63.84
2023-01-30T18:24:16.904Z,63.87
2023-01-30T18:26:43.526Z,63.64
2023-01-30T18:29:10.852Z,64.15
2023-01-30T18:31:40.150Z,64.54
2023-01-30T18:34:07.554Z,64.37
2023-01-30T18:36:35.857Z,64.99
2023-01-30T18:39:03.751Z,65.30
2023-01-30T18:41:30.816Z,66.50
2023-01-30T18:44:01.135Z,65.34
2023-01-30T18:46:29.404Z,65.36
2023-01-30T18:48:57.414Z,65.55
2023-01-30T18:51:32.914Z,64.90
2023-01-30T18:54:01.070Z,65.25
2023-01-30T18:56:31.614Z,64.56
2023-01-30T18:59:02.355Z,64.29
2023-01-30T19:01:34.549Z,64.76
2023-01-30T19:04:03.935Z,64.46
2023-01-30T19:06:30.567Z,64.32
2023-01-30T19:08:57.706Z,64.75
2023-01-30T19:11:43.381Z,65.62
2023-01-30T19:14:10.806Z,65.20
2023-01-30T19:16:39.195Z,65.23
2023-01-30T19:19:07.471Z,65.00
2023-01-30T19:21:35.390Z,64.72
2023-01-30T19:24:07.321Z,64.98
2023-01-30T19:26:35.009Z,64.88
2023-01-30T19:29:01.808Z,64.92
2023-01-30T19:31:28.513Z,65.06
2023-01-30T19:34:00.612Z,64.19
2023-01-30T19:36:30.216Z,64.00
2023-01-30T19:38:59.437Z,64.41
2023-01-30T19:41:30.353Z,64.27
2023-01-30T19:43:59.613Z,64.29
2023-01-30T19:46:28.718Z,64.35
2023-01-30T19:48:55.610Z,64.56
2023-01-30T19:51:29.055Z,63.77
2023-01-30T19:54:02.667Z,63.18
2023-01-30T19:56:30.191Z,63.28
2023-01-30T19:58:59.358Z,63.32
2023-01-30T20:01:30.496Z,62.78
2023-01-30T20:03:59.026Z,63.49
2023-01-30T20:06:32.686Z,63.66
2023-01-30T20:09:09.571Z,63.38
2023-01-30T20:11:38.724Z,63.89
2023-01-30T20:14:07.106Z,63.86
2023-01-30T20:16:35.648Z,63.30
2023-01-30T20:19:06.783Z,63.37
2023-01-30T20:21:34.390Z,63.10
2023-01-30T20:24:01.933Z,62.72
2023-01-30T20:26:35.828Z,62.01
2023-01-30T20:29:04.760Z,61.96
2023-01-30T20:31:31.988Z,62.00
2023-01-30T20:34:04.371Z,62.36
2023-01-30T20:36:31.328Z,62.32
2023-01-30T20:39:03.887Z,62.34
2023-01-30T20:41:32.403Z,62.92
2023-01-30T20:43:59.333Z,62.91
2023-01-30T20:46:34.479Z,63.15
2023-01-30T20:49:01.453Z,62.85
2023-01-30T20:51:31.393Z,62.40
2023-01-30T20:54:02.901Z,61.63
2023-01-30T20:56:42.987Z,61.88
2023-01-30T20:59:12.015Z,62.63
2023-01-30T21:01:40.645Z,62.99
2023-01-30T21:04:14.027Z,62.71
2023-01-30T21:06:45.439Z,63.18
2023-01-30T21:09:20.144Z,62.41
2023-01-30T21:11:48.610Z,62.76
2023-01-30T21:14:16.502Z,62.56
2023-01-30T21:16:43.800Z,62.07
2023-01-30T21:19:15.771Z,62.16
2023-01-30T21:21:53.344Z,62.44
2023-01-30T21:24:29.263Z,63.19
2023-01-30T21:26:56.763Z,63.32
2023-01-30T21:29:26.672Z,62.76
2023-01-30T21:31:54.555Z,62.64
2023-01-30T21:34:21.643Z,62.18
2023-01-30T21:37:08.105Z,62.21
2023-01-30T21:39:53.244Z,62.78
2023-01-30T21:42:39.099Z,62.69
2023-01-30T21:45:06.705Z,62.93
2023-01-30T21:47:33.232Z,62.44
2023-01-30T21:49:59.726Z,63.05
2023-01-30T21:52:26.234Z,63.02
2023-01-30T21:54:52.699Z,62.92
2023-01-30T21:57:19.182Z,62.85
2023-01-30T21:59:46.063Z,63.20
2023-01-30T22:02:12.569Z,62.83
2023-01-30T22:04:39.083Z,63.10
2023-01-30T22:07:06.938Z,63.17
2023-01-30T22:09:33.801Z,63.45
2023-01-30T22:12:00.314Z,63.56
2023-01-30T22:14:26.923Z,63.81
2023-01-30T22:16:53.535Z,64.40
2023-01-30T22:19:20.025Z,64.23
2023-01-30T22:21:46.519Z,64.09
2023-01-30T22:24:13.036Z,63.86
2023-01-30T22:26:39.702Z,64.35
2023-01-30T22:29:06.453Z,64.52
2023-01-30T22:31:37.443Z,63.95
2023-01-30T22:34:05.096Z,64.01
2023-01-30T22:36:33.966Z,64.50
2023-01-30T22:39:01.747Z,63.47
2023-01-30T22:41:34.558Z,63.51
2023-01-30T22:44:04.374Z,64.06
2023-01-30T22:46:36.190Z,63.87
2023-01-30T22:49:05.779Z,64.34
2023-01-30T22:51:39.657Z,64.25
2023-01-30T22:54:11.492Z,64.55
2023-01-30T22:56:43.782Z,64.84
2023-01-30T22:59:11.857Z,64.89
2023-01-30T23:01:42.344Z,64.79
2023-01-30T23:04:17.491Z,64.69
2023-01-30T23:06:45.696Z,64.70
2023-01-30T23:09:19.468Z,64.41
2023-01-30T23:12:14.823Z,64.83
2023-01-30T23:14:42.708Z,65.10
2023-01-30T23:17:27.885Z,64.78
2023-01-30T23:19:55.022Z,64.42
2023-01-30T23:22:22.395Z,64.32
2023-01-30T23:24:50.931Z,64.44
2023-01-30T23:27:20.801Z,64.86
2023-01-30T23:29:47.332Z,64.65
2023-01-30T23:32:14.857Z,64.78
2023-01-30T23:34:41.295Z,65.01
2023-01-30T23:37:07.835Z,64.38
2023-01-30T23:39:34.285Z,65.03
2023-01-30T23:42:00.731Z,64.80
2023-01-30T23:44:27.227Z,65.25
2023-01-30T23:46:53.716Z,64.69
2023-01-30T23:49:20.298Z,65.01
2023-01-30T23:51:46.766Z,64.93
2023-01-30T23:54:14.352Z,64.78
2023-01-30T23:56:44.600Z,64.99
2023-01-30T23:59:12.275Z,65.11
